sensor_id;sensor_type;location;lat;lon;timestamp;P1;durP1;ratioP1;P2;durP2;ratioP2
45676;SDS011;31390;51.186;6.830;2023-04-24T00:01:51;2.35;;;1.70;;
45676;SDS011;31390;51.186;6.830;2023-04-24T00:04:18;2.75;;;2.05;;
45676;SDS011;31390;51.186;6.830;2023-04-24T00:06:45;3.22;;;1.52;;
45676;SDS011;31390;51.186;6.830;2023-04-24T00:09:15;3.83;;;1.85;;
45676;SDS011;31390;51.186;6.830;2023-04-24T00:11:42;3.78;;;2.08;;
45676;SDS011;31390;51.186;6.830;2023-04-24T00:14:08;2.28;;;1.85;;
45676;SDS011;31390;51.186;6.830;2023-04-24T00:16:35;2.45;;;2.25;;
45676;SDS011;31390;51.186;6.830;2023-04-24T00:19:01;1.70;;;1.60;;
45676;SDS011;31390;51.186;6.830;2023-04-24T00:21:28;2.17;;;1.52;;
45676;SDS011;31390;51.186;6.830;2023-04-24T00:23:54;2.00;;;1.90;;
45676;SDS011;31390;51.186;6.830;2023-04-24T00:26:21;2.33;;;1.92;;
45676;SDS011;31390;51.186;6.830;2023-04-24T00:28:47;2.78;;;1.90;;
45676;SDS011;31390;51.186;6.830;2023-04-24T00:31:14;3.33;;;2.35;;
45676;SDS011;31390;51.186;6.830;2023-04-24T00:33:40;1.98;;;1.67;;
45676;SDS011;31390;51.186;6.830;2023-04-24T00:36:07;2.42;;;1.90;;
45676;SDS011;31390;51.186;6.830;2023-04-24T00:38:34;2.45;;;2.25;;
45676;SDS011;31390;51.186;6.830;2023-04-24T00:41:00;2.70;;;2.17;;
45676;SDS011;31390;51.186;6.830;2023-04-24T00:43:27;2.88;;;2.20;;
45676;SDS011;31390;51.186;6.830;2023-04-24T00:45:53;2.22;;;1.95;;
45676;SDS011;31390;51.186;6.830;2023-04-24T00:48:21;2.00;;;1.67;;
45676;SDS011;31390;51.186;6.830;2023-04-24T00:50:47;2.15;;;1.80;;
45676;SDS011;31390;51.186;6.830;2023-04-24T00:53:14;2.85;;;1.63;;
45676;SDS011;31390;51.186;6.830;2023-04-24T00:55:40;2.03;;;1.77;;
45676;SDS011;31390;51.186;6.830;2023-04-24T00:58:07;1.70;;;1.60;;
45676;SDS011;31390;51.186;6.830;2023-04-24T01:00:34;2.13;;;1.85;;
45676;SDS011;31390;51.186;6.830;2023-04-24T01:03:01;2.08;;;1.90;;
45676;SDS011;31390;51.186;6.830;2023-04-24T01:05:32;1.73;;;1.60;;
45676;SDS011;31390;51.186;6.830;2023-04-24T01:07:58;2.55;;;1.63;;
45676;SDS011;31390;51.186;6.830;2023-04-24T01:10:25;2.25;;;2.00;;
45676;SDS011;31390;51.186;6.830;2023-04-24T01:12:53;2.40;;;2.20;;
45676;SDS011;31390;51.186;6.830;2023-04-24T01:15:20;4.63;;;2.00;;
45676;SDS011;31390;51.186;6.830;2023-04-24T01:17:46;3.85;;;3.45;;
45676;SDS011;31390;51.186;6.830;2023-04-24T01:20:13;12.10;;;4.15;;
45676;SDS011;31390;51.186;6.830;2023-04-24T01:22:40;4.65;;;3.95;;
45676;SDS011;31390;51.186;6.830;2023-04-24T01:25:07;4.18;;;3.80;;
45676;SDS011;31390;51.186;6.830;2023-04-24T01:27:34;6.75;;;4.45;;
45676;SDS011;31390;51.186;6.830;2023-04-24T01:30:00;5.90;;;5.13;;
45676;SDS011;31390;51.186;6.830;2023-04-24T01:32:29;6.28;;;5.20;;
45676;SDS011;31390;51.186;6.830;2023-04-24T01:34:55;6.95;;;6.25;;
45676;SDS011;31390;51.186;6.830;2023-04-24T01:37:22;6.82;;;6.22;;
45676;SDS011;31390;51.186;6.830;2023-04-24T01:39:48;7.63;;;6.82;;
45676;SDS011;31390;51.186;6.830;2023-04-24T01:42:15;7.38;;;6.68;;
45676;SDS011;31390;51.186;6.830;2023-04-24T01:44:42;7.60;;;6.88;;
45676;SDS011;31390;51.186;6.830;2023-04-24T01:47:08;7.20;;;6.13;;
45676;SDS011;31390;51.186;6.830;2023-04-24T01:49:35;6.80;;;6.20;;
45676;SDS011;31390;51.186;6.830;2023-04-24T01:52:04;6.78;;;6.10;;
45676;SDS011;31390;51.186;6.830;2023-04-24T01:54:30;7.63;;;6.80;;
45676;SDS011;31390;51.186;6.830;2023-04-24T01:56:57;8.00;;;7.20;;
45676;SDS011;31390;51.186;6.830;2023-04-24T01:59:23;9.00;;;6.70;;
45676;SDS011;31390;51.186;6.830;2023-04-24T02:01:51;7.78;;;7.07;;
45676;SDS011;31390;51.186;6.830;2023-04-24T02:04:18;11.20;;;8.57;;
45676;SDS011;31390;51.186;6.830;2023-04-24T02:06:45;10.13;;;8.23;;
45676;SDS011;31390;51.186;6.830;2023-04-24T02:09:12;11.60;;;10.07;;
45676;SDS011;31390;51.186;6.830;2023-04-24T02:11:38;11.00;;;9.82;;
45676;SDS011;31390;51.186;6.830;2023-04-24T02:14:05;10.82;;;9.63;;
45676;SDS011;31390;51.186;6.830;2023-04-24T02:16:31;9.95;;;9.02;;
45676;SDS011;31390;51.186;6.830;2023-04-24T02:18:59;11.73;;;9.48;;
45676;SDS011;31390;51.186;6.830;2023-04-24T02:21:25;10.10;;;8.50;;
45676;SDS011;31390;51.186;6.830;2023-04-24T02:23:53;9.57;;;8.57;;
45676;SDS011;31390;51.186;6.830;2023-04-24T02:26:20;11.18;;;9.40;;
45676;SDS011;31390;51.186;6.830;2023-04-24T02:28:46;11.07;;;9.98;;
45676;SDS011;31390;51.186;6.830;2023-04-24T02:31:13;11.27;;;10.18;;
45676;SDS011;31390;51.186;6.830;2023-04-24T02:33:39;11.02;;;9.20;;
45676;SDS011;31390;51.186;6.830;2023-04-24T02:36:06;9.77;;;8.77;;
45676;SDS011;31390;51.186;6.830;2023-04-24T02:38:33;11.50;;;9.40;;
45676;SDS011;31390;51.186;6.830;2023-04-24T02:40:59;11.07;;;9.38;;
45676;SDS011;31390;51.186;6.830;2023-04-24T02:43:26;11.27;;;9.40;;
45676;SDS011;31390;51.186;6.830;2023-04-24T02:45:53;9.82;;;8.88;;
45676;SDS011;31390;51.186;6.830;2023-04-24T02:48:19;12.45;;;11.25;;
45676;SDS011;31390;51.186;6.830;2023-04-24T02:50:47;11.32;;;10.13;;
45676;SDS011;31390;51.186;6.830;2023-04-24T02:53:13;13.75;;;11.68;;
45676;SDS011;31390;51.186;6.830;2023-04-24T02:55:40;11.82;;;10.52;;
45676;SDS011;31390;51.186;6.830;2023-04-24T02:58:06;12.50;;;11.25;;
45676;SDS011;31390;51.186;6.830;2023-04-24T03:00:33;11.63;;;10.43;;
45676;SDS011;31390;51.186;6.830;2023-04-24T03:02:59;11.90;;;10.48;;
45676;SDS011;31390;51.186;6.830;2023-04-24T03:05:26;12.93;;;11.70;;
45676;SDS011;31390;51.186;6.830;2023-04-24T03:07:53;15.02;;;11.27;;
45676;SDS011;31390;51.186;6.830;2023-04-24T03:10:20;11.80;;;9.90;;
45676;SDS011;31390;51.186;6.830;2023-04-24T03:12:48;11.40;;;10.23;;
45676;SDS011;31390;51.186;6.830;2023-04-24T03:15:17;11.80;;;10.60;;
45676;SDS011;31390;51.186;6.830;2023-04-24T03:17:43;12.13;;;10.27;;
45676;SDS011;31390;51.186;6.830;2023-04-24T03:20:10;13.90;;;9.90;;
45676;SDS011;31390;51.186;6.830;2023-04-24T03:22:37;13.10;;;10.18;;
45676;SDS011;31390;51.186;6.830;2023-04-24T03:25:06;12.50;;;10.43;;
45676;SDS011;31390;51.186;6.830;2023-04-24T03:27:34;11.88;;;10.75;;
45676;SDS011;31390;51.186;6.830;2023-04-24T03:30:06;11.63;;;10.43;;
45676;SDS011;31390;51.186;6.830;2023-04-24T03:32:41;11.82;;;10.60;;
45676;SDS011;31390;51.186;6.830;2023-04-24T03:35:12;13.45;;;10.85;;
45676;SDS011;31390;51.186;6.830;2023-04-24T03:37:39;11.52;;;10.32;;
45676;SDS011;31390;51.186;6.830;2023-04-24T03:40:26;11.40;;;10.20;;
45676;SDS011;31390;51.186;6.830;2023-04-24T03:42:52;13.05;;;9.70;;
45676;SDS011;31390;51.186;6.830;2023-04-24T03:45:19;12.52;;;10.75;;
45676;SDS011;31390;51.186;6.830;2023-04-24T03:47:48;13.48;;;10.90;;
45676;SDS011;31390;51.186;6.830;2023-04-24T03:50:15;11.70;;;10.45;;
45676;SDS011;31390;51.186;6.830;2023-04-24T03:52:42;11.32;;;10.18;;
45676;SDS011;31390;51.186;6.830;2023-04-24T03:55:12;11.65;;;10.05;;
45676;SDS011;31390;51.186;6.830;2023-04-24T03:57:43;12.30;;;10.75;;
45676;SDS011;31390;51.186;6.830;2023-04-24T04:00:18;14.95;;;10.18;;
45676;SDS011;31390;51.186;6.830;2023-04-24T04:02:51;12.10;;;10.30;;
45676;SDS011;31390;51.186;6.830;2023-04-24T04:05:18;16.35;;;10.52;;
45676;SDS011;31390;51.186;6.830;2023-04-24T04:07:45;12.43;;;11.13;;
45676;SDS011;31390;51.186;6.830;2023-04-24T04:10:11;12.90;;;10.75;;
45676;SDS011;31390;51.186;6.830;2023-04-24T04:12:38;13.60;;;10.82;;
45676;SDS011;31390;51.186;6.830;2023-04-24T04:15:04;14.55;;;10.50;;
45676;SDS011;31390;51.186;6.830;2023-04-24T04:17:33;11.18;;;10.07;;
45676;SDS011;31390;51.186;6.830;2023-04-24T04:20:00;12.30;;;10.10;;
45676;SDS011;31390;51.186;6.830;2023-04-24T04:22:28;11.88;;;10.70;;
45676;SDS011;31390;51.186;6.830;2023-04-24T04:24:54;12.35;;;10.75;;
45676;SDS011;31390;51.186;6.830;2023-04-24T04:27:22;10.77;;;9.70;;
45676;SDS011;31390;51.186;6.830;2023-04-24T04:29:59;11.43;;;10.27;;
45676;SDS011;31390;51.186;6.830;2023-04-24T04:32:33;11.63;;;10.45;;
45676;SDS011;31390;51.186;6.830;2023-04-24T04:35:01;11.23;;;10.13;;
45676;SDS011;31390;51.186;6.830;2023-04-24T04:37:32;13.20;;;10.85;;
45676;SDS011;31390;51.186;6.830;2023-04-24T04:40:22;11.93;;;10.70;;
45676;SDS011;31390;51.186;6.830;2023-04-24T04:42:55;13.18;;;10.48;;
45676;SDS011;31390;51.186;6.830;2023-04-24T04:45:24;11.45;;;10.23;;
45676;SDS011;31390;51.186;6.830;2023-04-24T04:48:16;12.38;;;11.10;;
45676;SDS011;31390;51.186;6.830;2023-04-24T04:50:45;14.38;;;10.43;;
45676;SDS011;31390;51.186;6.830;2023-04-24T04:53:11;10.05;;;9.02;;
45676;SDS011;31390;51.186;6.830;2023-04-24T04:55:38;11.63;;;10.43;;
45676;SDS011;31390;51.186;6.830;2023-04-24T04:58:14;10.88;;;9.77;;
45676;SDS011;31390;51.186;6.830;2023-04-24T05:00:40;11.18;;;9.88;;
45676;SDS011;31390;51.186;6.830;2023-04-24T05:03:30;13.43;;;10.13;;
45676;SDS011;31390;51.186;6.830;2023-04-24T05:06:04;12.23;;;10.05;;
45676;SDS011;31390;51.186;6.830;2023-04-24T05:08:34;10.00;;;9.00;;
45676;SDS011;31390;51.186;6.830;2023-04-24T05:11:02;11.60;;;9.15;;
45676;SDS011;31390;51.186;6.830;2023-04-24T05:13:30;10.07;;;8.25;;
45676;SDS011;31390;51.186;6.830;2023-04-24T05:16:20;9.98;;;7.53;;
45676;SDS011;31390;51.186;6.830;2023-04-24T05:18:49;9.13;;;8.23;;
45676;SDS011;31390;51.186;6.830;2023-04-24T05:21:20;9.70;;;8.80;;
45676;SDS011;31390;51.186;6.830;2023-04-24T05:23:50;10.02;;;8.98;;
45676;SDS011;31390;51.186;6.830;2023-04-24T05:26:25;11.07;;;8.85;;
45676;SDS011;31390;51.186;6.830;2023-04-24T05:28:52;11.32;;;10.23;;
45676;SDS011;31390;51.186;6.830;2023-04-24T05:31:18;11.63;;;10.43;;
45676;SDS011;31390;51.186;6.830;2023-04-24T05:33:45;12.45;;;11.18;;
45676;SDS011;31390;51.186;6.830;2023-04-24T05:36:11;15.05;;;12.23;;
45676;SDS011;31390;51.186;6.830;2023-04-24T05:38:38;14.65;;;13.15;;
45676;SDS011;31390;51.186;6.830;2023-04-24T05:41:05;14.73;;;13.23;;
45676;SDS011;31390;51.186;6.830;2023-04-24T05:43:31;14.95;;;13.02;;
45676;SDS011;31390;51.186;6.830;2023-04-24T05:45:58;18.13;;;14.02;;
45676;SDS011;31390;51.186;6.830;2023-04-24T05:48:25;16.33;;;14.50;;
45676;SDS011;31390;51.186;6.830;2023-04-24T05:50:52;16.30;;;14.75;;
45676;SDS011;31390;51.186;6.830;2023-04-24T05:53:18;16.92;;;14.95;;
45676;SDS011;31390;51.186;6.830;2023-04-24T05:55:45;16.95;;;14.45;;
45676;SDS011;31390;51.186;6.830;2023-04-24T05:58:12;18.58;;;15.48;;
45676;SDS011;31390;51.186;6.830;2023-04-24T06:00:38;17.60;;;14.57;;
45676;SDS011;31390;51.186;6.830;2023-04-24T06:03:08;14.18;;;12.80;;
45676;SDS011;31390;51.186;6.830;2023-04-24T06:05:35;16.30;;;14.60;;
45676;SDS011;31390;51.186;6.830;2023-04-24T06:08:02;13.73;;;12.25;;
45676;SDS011;31390;51.186;6.830;2023-04-24T06:10:33;15.40;;;13.23;;
45676;SDS011;31390;51.186;6.830;2023-04-24T06:12:59;13.93;;;12.63;;
45676;SDS011;31390;51.186;6.830;2023-04-24T06:15:29;12.55;;;11.35;;
45676;SDS011;31390;51.186;6.830;2023-04-24T06:18:00;11.02;;;9.98;;
45676;SDS011;31390;51.186;6.830;2023-04-24T06:20:27;12.32;;;11.02;;
45676;SDS011;31390;51.186;6.830;2023-04-24T06:22:53;11.13;;;9.98;;
45676;SDS011;31390;51.186;6.830;2023-04-24T06:25:20;10.50;;;8.77;;
45676;SDS011;31390;51.186;6.830;2023-04-24T06:27:46;13.43;;;11.02;;
45676;SDS011;31390;51.186;6.830;2023-04-24T06:30:13;13.55;;;11.35;;
45676;SDS011;31390;51.186;6.830;2023-04-24T06:32:40;12.38;;;10.68;;
45676;SDS011;31390;51.186;6.830;2023-04-24T06:35:07;11.77;;;10.00;;
45676;SDS011;31390;51.186;6.830;2023-04-24T06:37:34;10.95;;;9.80;;
45676;SDS011;31390;51.186;6.830;2023-04-24T06:40:00;11.88;;;10.02;;
45676;SDS011;31390;51.186;6.830;2023-04-24T06:42:27;12.60;;;10.35;;
45676;SDS011;31390;51.186;6.830;2023-04-24T06:44:54;11.15;;;9.98;;
45676;SDS011;31390;51.186;6.830;2023-04-24T06:47:21;13.75;;;11.13;;
45676;SDS011;31390;51.186;6.830;2023-04-24T06:49:47;11.63;;;10.43;;
45676;SDS011;31390;51.186;6.830;2023-04-24T06:52:14;17.38;;;13.20;;
45676;SDS011;31390;51.186;6.830;2023-04-24T06:54:41;13.95;;;12.02;;
45676;SDS011;31390;51.186;6.830;2023-04-24T06:57:08;12.77;;;11.38;;
45676;SDS011;31390;51.186;6.830;2023-04-24T06:59:34;14.02;;;11.13;;
45676;SDS011;31390;51.186;6.830;2023-04-24T07:02:01;13.25;;;11.32;;
45676;SDS011;31390;51.186;6.830;2023-04-24T07:04:27;12.60;;;11.27;;
45676;SDS011;31390;51.186;6.830;2023-04-24T07:06:54;12.63;;;10.90;;
45676;SDS011;31390;51.186;6.830;2023-04-24T07:09:24;12.25;;;10.85;;
45676;SDS011;31390;51.186;6.830;2023-04-24T07:11:51;12.75;;;11.25;;
45676;SDS011;31390;51.186;6.830;2023-04-24T07:14:19;12.35;;;11.02;;
45676;SDS011;31390;51.186;6.830;2023-04-24T07:16:45;10.77;;;9.43;;
45676;SDS011;31390;51.186;6.830;2023-04-24T07:19:12;6.57;;;5.95;;
45676;SDS011;31390;51.186;6.830;2023-04-24T07:21:39;8.65;;;7.57;;
45676;SDS011;31390;51.186;6.830;2023-04-24T07:24:05;8.65;;;7.45;;
45676;SDS011;31390;51.186;6.830;2023-04-24T07:26:35;7.43;;;5.63;;
45676;SDS011;31390;51.186;6.830;2023-04-24T07:29:02;6.45;;;5.50;;
45676;SDS011;31390;51.186;6.830;2023-04-24T07:31:28;6.18;;;4.85;;
45676;SDS011;31390;51.186;6.830;2023-04-24T07:33:55;4.20;;;3.80;;
45676;SDS011;31390;51.186;6.830;2023-04-24T07:36:24;4.88;;;4.20;;
45676;SDS011;31390;51.186;6.830;2023-04-24T07:38:52;2.60;;;2.28;;
45676;SDS011;31390;51.186;6.830;2023-04-24T07:41:19;3.30;;;2.08;;
45676;SDS011;31390;51.186;6.830;2023-04-24T07:43:46;2.97;;;1.83;;
45676;SDS011;31390;51.186;6.830;2023-04-24T07:46:13;0.98;;;0.70;;
45676;SDS011;31390;51.186;6.830;2023-04-24T07:48:39;1.38;;;0.90;;
45676;SDS011;31390;51.186;6.830;2023-04-24T07:51:06;3.65;;;0.80;;
45676;SDS011;31390;51.186;6.830;2023-04-24T07:53:32;4.07;;;1.30;;
45676;SDS011;31390;51.186;6.830;2023-04-24T07:55:59;4.07;;;1.35;;
45676;SDS011;31390;51.186;6.830;2023-04-24T07:58:25;2.03;;;1.30;;
45676;SDS011;31390;51.186;6.830;2023-04-24T08:00:52;2.22;;;1.63;;
45676;SDS011;31390;51.186;6.830;2023-04-24T08:03:18;2.08;;;1.38;;
45676;SDS011;31390;51.186;6.830;2023-04-24T08:05:46;0.90;;;0.90;;
45676;SDS011;31390;51.186;6.830;2023-04-24T08:08:13;1.42;;;1.17;;
45676;SDS011;31390;51.186;6.830;2023-04-24T08:10:39;1.73;;;0.93;;
45676;SDS011;31390;51.186;6.830;2023-04-24T08:13:06;1.20;;;1.10;;
45676;SDS011;31390;51.186;6.830;2023-04-24T08:15:32;1.70;;;1.30;;
45676;SDS011;31390;51.186;6.830;2023-04-24T08:17:59;1.90;;;1.27;;
45676;SDS011;31390;51.186;6.830;2023-04-24T08:20:26;2.80;;;2.50;;
45676;SDS011;31390;51.186;6.830;2023-04-24T08:22:52;6.18;;;3.47;;
45676;SDS011;31390;51.186;6.830;2023-04-24T08:25:20;7.65;;;4.85;;
45676;SDS011;31390;51.186;6.830;2023-04-24T08:27:46;9.15;;;6.07;;
45676;SDS011;31390;51.186;6.830;2023-04-24T08:30:13;10.13;;;6.70;;
45676;SDS011;31390;51.186;6.830;2023-04-24T08:32:40;10.75;;;8.00;;
45676;SDS011;31390;51.186;6.830;2023-04-24T08:35:06;12.48;;;10.00;;
45676;SDS011;31390;51.186;6.830;2023-04-24T08:37:35;14.63;;;10.40;;
45676;SDS011;31390;51.186;6.830;2023-04-24T08:40:03;16.52;;;11.63;;
45676;SDS011;31390;51.186;6.830;2023-04-24T08:42:32;11.57;;;9.60;;
45676;SDS011;31390;51.186;6.830;2023-04-24T08:45:00;9.73;;;7.93;;
45676;SDS011;31390;51.186;6.830;2023-04-24T08:47:28;9.63;;;7.53;;
45676;SDS011;31390;51.186;6.830;2023-04-24T08:49:55;13.27;;;8.32;;
45676;SDS011;31390;51.186;6.830;2023-04-24T08:52:22;26.25;;;13.43;;
45676;SDS011;31390;51.186;6.830;2023-04-24T08:54:49;16.70;;;11.95;;
45676;SDS011;31390;51.186;6.830;2023-04-24T08:57:15;17.50;;;12.35;;
45676;SDS011;31390;51.186;6.830;2023-04-24T08:59:42;13.95;;;9.95;;
45676;SDS011;31390;51.186;6.830;2023-04-24T09:02:10;12.38;;;9.20;;
45676;SDS011;31390;51.186;6.830;2023-04-24T09:04:37;15.23;;;10.10;;
45676;SDS011;31390;51.186;6.830;2023-04-24T09:07:04;14.38;;;9.35;;
45676;SDS011;31390;51.186;6.830;2023-04-24T09:09:32;10.13;;;8.45;;
45676;SDS011;31390;51.186;6.830;2023-04-24T09:11:59;11.35;;;8.15;;
45676;SDS011;31390;51.186;6.830;2023-04-24T09:14:26;10.15;;;6.43;;
45676;SDS011;31390;51.186;6.830;2023-04-24T09:16:54;16.13;;;10.55;;
45676;SDS011;31390;51.186;6.830;2023-04-24T09:19:20;15.05;;;9.73;;
45676;SDS011;31390;51.186;6.830;2023-04-24T09:21:48;13.32;;;9.82;;
45676;SDS011;31390;51.186;6.830;2023-04-24T09:24:18;14.77;;;10.88;;
45676;SDS011;31390;51.186;6.830;2023-04-24T09:26:46;15.77;;;11.02;;
45676;SDS011;31390;51.186;6.830;2023-04-24T09:29:16;24.25;;;14.50;;
45676;SDS011;31390;51.186;6.830;2023-04-24T09:31:43;20.63;;;12.82;;
45676;SDS011;31390;51.186;6.830;2023-04-24T09:34:10;27.25;;;16.20;;
45676;SDS011;31390;51.186;6.830;2023-04-24T09:36:38;21.85;;;13.52;;
45676;SDS011;31390;51.186;6.830;2023-04-24T09:39:05;19.52;;;13.18;;
45676;SDS011;31390;51.186;6.830;2023-04-24T09:41:34;10.48;;;9.07;;
45676;SDS011;31390;51.186;6.830;2023-04-24T09:44:16;13.65;;;10.50;;
45676;SDS011;31390;51.186;6.830;2023-04-24T09:46:45;22.92;;;14.05;;
45676;SDS011;31390;51.186;6.830;2023-04-24T09:49:15;17.10;;;11.45;;
45676;SDS011;31390;51.186;6.830;2023-04-24T09:51:42;23.05;;;14.38;;
45676;SDS011;31390;51.186;6.830;2023-04-24T09:54:15;24.75;;;15.05;;
45676;SDS011;31390;51.186;6.830;2023-04-24T09:56:43;29.10;;;18.17;;
45676;SDS011;31390;51.186;6.830;2023-04-24T09:59:10;26.70;;;18.05;;
45676;SDS011;31390;51.186;6.830;2023-04-24T10:01:36;40.22;;;21.30;;
45676;SDS011;31390;51.186;6.830;2023-04-24T10:04:07;39.28;;;21.30;;
45676;SDS011;31390;51.186;6.830;2023-04-24T10:06:41;32.75;;;20.25;;
45676;SDS011;31390;51.186;6.830;2023-04-24T10:09:08;44.28;;;22.88;;
45676;SDS011;31390;51.186;6.830;2023-04-24T10:11:37;44.25;;;23.70;;
45676;SDS011;31390;51.186;6.830;2023-04-24T10:14:03;27.52;;;18.95;;
45676;SDS011;31390;51.186;6.830;2023-04-24T10:16:31;46.95;;;23.70;;
45676;SDS011;31390;51.186;6.830;2023-04-24T10:18:59;28.23;;;18.92;;
45676;SDS011;31390;51.186;6.830;2023-04-24T10:21:26;31.67;;;19.63;;
45676;SDS011;31390;51.186;6.830;2023-04-24T10:23:52;31.20;;;19.55;;
45676;SDS011;31390;51.186;6.830;2023-04-24T10:26:19;52.85;;;27.05;;
45676;SDS011;31390;51.186;6.830;2023-04-24T10:28:46;39.92;;;21.73;;
45676;SDS011;31390;51.186;6.830;2023-04-24T10:31:13;49.38;;;26.10;;
45676;SDS011;31390;51.186;6.830;2023-04-24T10:33:40;25.70;;;17.70;;
45676;SDS011;31390;51.186;6.830;2023-04-24T10:36:11;26.80;;;17.38;;
45676;SDS011;31390;51.186;6.830;2023-04-24T10:38:39;39.00;;;21.80;;
45676;SDS011;31390;51.186;6.830;2023-04-24T10:41:07;25.95;;;15.95;;
45676;SDS011;31390;51.186;6.830;2023-04-24T10:43:35;30.15;;;18.60;;
45676;SDS011;31390;51.186;6.830;2023-04-24T10:46:05;19.23;;;13.23;;
45676;SDS011;31390;51.186;6.830;2023-04-24T10:48:32;22.33;;;14.93;;
45676;SDS011;31390;51.186;6.830;2023-04-24T10:50:59;25.42;;;14.57;;
45676;SDS011;31390;51.186;6.830;2023-04-24T10:53:29;14.48;;;7.93;;
45676;SDS011;31390;51.186;6.830;2023-04-24T10:56:00;14.73;;;9.57;;
45676;SDS011;31390;51.186;6.830;2023-04-24T11:01:25;24.73;;;13.15;;
45676;SDS011;31390;51.186;6.830;2023-04-24T11:03:59;16.00;;;9.90;;
45676;SDS011;31390;51.186;6.830;2023-04-24T11:06:33;9.88;;;7.00;;
45676;SDS011;31390;51.186;6.830;2023-04-24T11:09:03;14.93;;;9.40;;
45676;SDS011;31390;51.186;6.830;2023-04-24T11:11:32;16.25;;;10.15;;
45676;SDS011;31390;51.186;6.830;2023-04-24T11:16:31;20.65;;;10.40;;
45676;SDS011;31390;51.186;6.830;2023-04-24T11:21:43;16.35;;;7.32;;
45676;SDS011;31390;51.186;6.830;2023-04-24T11:26:50;15.02;;;7.80;;
45676;SDS011;31390;51.186;6.830;2023-04-24T11:29:17;12.57;;;7.13;;
45676;SDS011;31390;51.186;6.830;2023-04-24T11:31:47;14.85;;;7.90;;
45676;SDS011;31390;51.186;6.830;2023-04-24T11:34:16;11.15;;;5.45;;
45676;SDS011;31390;51.186;6.830;2023-04-24T11:36:43;13.98;;;6.50;;
45676;SDS011;31390;51.186;6.830;2023-04-24T11:39:10;16.15;;;7.50;;
45676;SDS011;31390;51.186;6.830;2023-04-24T11:41:37;12.50;;;6.47;;
45676;SDS011;31390;51.186;6.830;2023-04-24T11:44:06;11.38;;;6.95;;
45676;SDS011;31390;51.186;6.830;2023-04-24T11:46:32;11.65;;;6.78;;
45676;SDS011;31390;51.186;6.830;2023-04-24T11:48:59;13.98;;;7.15;;
45676;SDS011;31390;51.186;6.830;2023-04-24T11:51:26;11.80;;;4.88;;
45676;SDS011;31390;51.186;6.830;2023-04-24T11:54:02;10.93;;;6.18;;
45676;SDS011;31390;51.186;6.830;2023-04-24T11:56:30;14.38;;;6.72;;
45676;SDS011;31390;51.186;6.830;2023-04-24T11:58:56;10.77;;;6.05;;
45676;SDS011;31390;51.186;6.830;2023-04-24T12:01:23;12.27;;;5.95;;
45676;SDS011;31390;51.186;6.830;2023-04-24T12:03:50;10.73;;;5.28;;
45676;SDS011;31390;51.186;6.830;2023-04-24T12:06:17;9.73;;;5.40;;
45676;SDS011;31390;51.186;6.830;2023-04-24T12:08:45;13.13;;;6.15;;
45676;SDS011;31390;51.186;6.830;2023-04-24T12:11:14;15.43;;;6.97;;
45676;SDS011;31390;51.186;6.830;2023-04-24T12:13:41;10.85;;;6.25;;
45676;SDS011;31390;51.186;6.830;2023-04-24T12:16:07;9.13;;;3.92;;
45676;SDS011;31390;51.186;6.830;2023-04-24T12:18:34;7.60;;;3.75;;
45676;SDS011;31390;51.186;6.830;2023-04-24T12:21:20;6.70;;;3.83;;
45676;SDS011;31390;51.186;6.830;2023-04-24T12:23:48;11.18;;;4.63;;
45676;SDS011;31390;51.186;6.830;2023-04-24T12:26:18;7.82;;;4.07;;
45676;SDS011;31390;51.186;6.830;2023-04-24T12:28:48;5.93;;;3.33;;
45676;SDS011;31390;51.186;6.830;2023-04-24T12:31:16;8.20;;;3.30;;
45676;SDS011;31390;51.186;6.830;2023-04-24T12:33:42;6.05;;;3.17;;
45676;SDS011;31390;51.186;6.830;2023-04-24T12:36:10;8.23;;;3.58;;
45676;SDS011;31390;51.186;6.830;2023-04-24T12:38:38;5.82;;;3.08;;
45676;SDS011;31390;51.186;6.830;2023-04-24T12:41:08;5.90;;;2.85;;
45676;SDS011;31390;51.186;6.830;2023-04-24T12:43:35;8.27;;;3.25;;
45676;SDS011;31390;51.186;6.830;2023-04-24T12:46:02;6.70;;;2.50;;
45676;SDS011;31390;51.186;6.830;2023-04-24T12:48:29;4.53;;;2.50;;
45676;SDS011;31390;51.186;6.830;2023-04-24T12:50:57;6.15;;;2.35;;
45676;SDS011;31390;51.186;6.830;2023-04-24T12:53:23;6.10;;;2.38;;
45676;SDS011;31390;51.186;6.830;2023-04-24T12:55:52;5.25;;;2.55;;
45676;SDS011;31390;51.186;6.830;2023-04-24T12:58:19;2.95;;;1.83;;
45676;SDS011;31390;51.186;6.830;2023-04-24T13:00:46;4.25;;;1.90;;
45676;SDS011;31390;51.186;6.830;2023-04-24T13:03:13;4.50;;;2.17;;
45676;SDS011;31390;51.186;6.830;2023-04-24T13:05:41;3.38;;;2.05;;
45676;SDS011;31390;51.186;6.830;2023-04-24T13:08:08;3.88;;;2.40;;
45676;SDS011;31390;51.186;6.830;2023-04-24T13:10:34;3.47;;;2.15;;
45676;SDS011;31390;51.186;6.830;2023-04-24T13:13:01;4.53;;;2.10;;
45676;SDS011;31390;51.186;6.830;2023-04-24T13:15:27;3.78;;;2.15;;
45676;SDS011;31390;51.186;6.830;2023-04-24T13:17:54;3.20;;;2.00;;
45676;SDS011;31390;51.186;6.830;2023-04-24T13:20:21;3.08;;;2.20;;
45676;SDS011;31390;51.186;6.830;2023-04-24T13:22:48;3.58;;;2.17;;
45676;SDS011;31390;51.186;6.830;2023-04-24T13:25:14;3.22;;;2.03;;
45676;SDS011;31390;51.186;6.830;2023-04-24T13:27:43;4.65;;;2.05;;
45676;SDS011;31390;51.186;6.830;2023-04-24T13:30:09;3.40;;;2.00;;
45676;SDS011;31390;51.186;6.830;2023-04-24T13:32:36;3.83;;;2.35;;
45676;SDS011;31390;51.186;6.830;2023-04-24T13:35:03;4.88;;;2.22;;
45676;SDS011;31390;51.186;6.830;2023-04-24T13:37:30;3.53;;;1.77;;
45676;SDS011;31390;51.186;6.830;2023-04-24T13:39:56;4.05;;;2.00;;
45676;SDS011;31390;51.186;6.830;2023-04-24T13:42:23;5.10;;;2.35;;
45676;SDS011;31390;51.186;6.830;2023-04-24T13:44:49;3.88;;;2.30;;
45676;SDS011;31390;51.186;6.830;2023-04-24T13:47:17;3.10;;;2.00;;
45676;SDS011;31390;51.186;6.830;2023-04-24T13:49:44;3.72;;;2.13;;
45676;SDS011;31390;51.186;6.830;2023-04-24T13:52:10;2.72;;;1.90;;
45676;SDS011;31390;51.186;6.830;2023-04-24T13:54:37;5.82;;;2.50;;
45676;SDS011;31390;51.186;6.830;2023-04-24T13:57:03;3.70;;;2.30;;
45676;SDS011;31390;51.186;6.830;2023-04-24T13:59:30;4.85;;;2.30;;
45676;SDS011;31390;51.186;6.830;2023-04-24T14:01:57;5.82;;;2.45;;
45676;SDS011;31390;51.186;6.830;2023-04-24T14:04:23;5.28;;;2.00;;
45676;SDS011;31390;51.186;6.830;2023-04-24T14:06:51;5.65;;;2.10;;
45676;SDS011;31390;51.186;6.830;2023-04-24T14:09:17;3.90;;;1.83;;
45676;SDS011;31390;51.186;6.830;2023-04-24T14:11:44;4.38;;;2.40;;
45676;SDS011;31390;51.186;6.830;2023-04-24T14:14:10;5.22;;;2.28;;
45676;SDS011;31390;51.186;6.830;2023-04-24T14:16:37;4.88;;;2.45;;
45676;SDS011;31390;51.186;6.830;2023-04-24T14:19:04;3.38;;;2.30;;
45676;SDS011;31390;51.186;6.830;2023-04-24T14:21:32;4.80;;;2.10;;
45676;SDS011;31390;51.186;6.830;2023-04-24T14:23:58;6.28;;;2.35;;
45676;SDS011;31390;51.186;6.830;2023-04-24T14:26:25;4.00;;;2.00;;
45676;SDS011;31390;51.186;6.830;2023-04-24T14:28:51;4.95;;;2.17;;
45676;SDS011;31390;51.186;6.830;2023-04-24T14:31:29;4.63;;;2.25;;
45676;SDS011;31390;51.186;6.830;2023-04-24T14:33:56;6.15;;;1.77;;
45676;SDS011;31390;51.186;6.830;2023-04-24T14:36:23;2.92;;;1.70;;
45676;SDS011;31390;51.186;6.830;2023-04-24T14:38:50;3.10;;;1.80;;
45676;SDS011;31390;51.186;6.830;2023-04-24T14:41:16;6.72;;;1.50;;
45676;SDS011;31390;51.186;6.830;2023-04-24T14:43:43;2.55;;;1.60;;
45676;SDS011;31390;51.186;6.830;2023-04-24T14:46:10;4.50;;;2.00;;
45676;SDS011;31390;51.186;6.830;2023-04-24T14:48:36;3.45;;;1.73;;
45676;SDS011;31390;51.186;6.830;2023-04-24T14:51:03;4.93;;;1.58;;